createdAt,value
2023-01-23T00:01:26.603Z,12.77
2023-01-23T00:03:54.828Z,19.13
2023-01-23T00:06:22.461Z,11.30
2023-01-23T00:08:49.299Z,14.68
2023-01-23T00:11:25.179Z,15.37
2023-01-23T00:13:52.940Z,12.30
2023-01-23T00:16:22.887Z,11.07
2023-01-23T00:18:51.131Z,14.70
2023-01-23T00:21:20.693Z,12.85
2023-01-23T00:23:50.365Z,10.60
2023-01-23T00:26:19.790Z,12.43
2023-01-23T00:28:47.672Z,13.00
2023-01-23T00:31:20.740Z,12.98
2023-01-23T00:33:47.709Z,17.27
2023-01-23T00:36:15.599Z,11.80
2023-01-23T00:38:43.416Z,9.43
2023-01-23T00:41:10.231Z,16.00
2023-01-23T00:43:37.108Z,13.43
2023-01-23T00:46:04.565Z,14.63
2023-01-23T00:48:31.393Z,14.07
2023-01-23T00:51:00.763Z,12.73
2023-01-23T00:53:27.677Z,18.65
2023-01-23T00:55:55.626Z,11.63
2023-01-23T00:58:22.483Z,12.48
2023-01-23T01:00:49.384Z,14.23
2023-01-23T01:03:16.300Z,13.95
2023-01-23T01:05:43.348Z,9.32
2023-01-23T01:08:10.359Z,11.88
2023-01-23T01:10:39.582Z,11.68
2023-01-23T01:13:06.448Z,10.57
2023-01-23T01:15:33.447Z,10.48
2023-01-23T01:18:00.301Z,13.80
2023-01-23T01:20:28.778Z,16.40
2023-01-23T01:22:57.662Z,13.23
2023-01-23T01:25:25.111Z,13.77
2023-01-23T01:27:51.960Z,11.77
2023-01-23T01:30:19.337Z,11.65
2023-01-23T01:32:46.497Z,17.02
2023-01-23T01:35:13.475Z,10.57
2023-01-23T01:37:41.266Z,12.93
2023-01-23T01:40:13.403Z,12.00
2023-01-23T01:42:42.661Z,13.35
2023-01-23T01:45:47.174Z,15.00
2023-01-23T01:48:15.560Z,14.18
2023-01-23T01:50:43.358Z,13.40
2023-01-23T01:53:11.767Z,12.63
2023-01-23T01:55:40.007Z,12.05
2023-01-23T01:58:08.445Z,20.73
2023-01-23T02:00:36.198Z,18.35
2023-01-23T02:03:03.693Z,10.97
2023-01-23T02:05:36.029Z,14.05
2023-01-23T02:08:11.222Z,12.98
2023-01-23T02:10:38.619Z,12.07
2023-01-23T02:13:30.551Z,19.08
2023-01-23T02:16:00.013Z,13.87
2023-01-23T02:18:29.691Z,11.40
2023-01-23T02:20:59.957Z,17.85
2023-01-23T02:23:26.876Z,11.85
2023-01-23T02:26:09.737Z,16.83
2023-01-23T02:28:46.644Z,20.70
2023-01-23T02:31:14.847Z,16.75
2023-01-23T02:33:45.840Z,12.88
2023-01-23T02:36:13.422Z,14.85
2023-01-23T02:38:48.960Z,14.75
2023-01-23T02:41:18.409Z,16.33
2023-01-23T02:43:45.858Z,11.45
2023-01-23T02:46:12.751Z,12.68
2023-01-23T02:48:44.499Z,14.50
2023-01-23T02:51:11.746Z,12.45
2023-01-23T02:53:39.577Z,13.93
2023-01-23T02:56:06.722Z,13.65
2023-01-23T02:58:51.980Z,13.95
2023-01-23T03:01:19.209Z,11.57
2023-01-23T03:03:46.134Z,18.70
2023-01-23T03:06:13.020Z,11.73
2023-01-23T03:08:47.842Z,13.60
2023-01-23T03:11:17.042Z,13.25
2023-01-23T03:13:45.591Z,12.90
2023-01-23T03:16:12.457Z,15.35
2023-01-23T03:18:52.718Z,12.30
2023-01-23T03:21:21.552Z,15.82
2023-01-23T03:23:48.510Z,18.33
2023-01-23T03:26:15.802Z,15.80
2023-01-23T03:29:01.031Z,17.13
2023-01-23T03:31:28.002Z,17.17
2023-01-23T03:33:54.957Z,14.70
2023-01-23T03:36:21.747Z,11.52
2023-01-23T03:39:07.340Z,14.90
2023-01-23T03:41:34.199Z,14.13
2023-01-23T03:44:00.924Z,17.33
2023-01-23T03:46:27.853Z,15.45
2023-01-23T03:48:54.631Z,14.15
2023-01-23T03:51:21.499Z,13.13
2023-01-23T03:53:48.451Z,11.63
2023-01-23T03:56:15.588Z,12.73
2023-01-23T03:58:42.405Z,11.43
2023-01-23T04:01:09.961Z,12.77
2023-01-23T04:03:36.893Z,12.60
2023-01-23T04:06:03.920Z,13.45
2023-01-23T04:08:30.827Z,14.47
2023-01-23T04:11:03.147Z,17.27
2023-01-23T04:13:30.080Z,15.30
2023-01-23T04:15:56.978Z,14.75
2023-01-23T04:18:23.811Z,13.15
2023-01-23T04:20:50.702Z,16.33
2023-01-23T04:23:17.946Z,14.48
2023-01-23T04:25:44.909Z,14.77
2023-01-23T04:28:11.791Z,11.68
2023-01-23T04:30:38.730Z,15.07
2023-01-23T04:33:05.622Z,15.10
2023-01-23T04:35:32.517Z,15.07
2023-01-23T04:37:59.776Z,11.73
2023-01-23T04:40:26.898Z,13.60
2023-01-23T04:42:54.363Z,14.27
2023-01-23T04:45:21.198Z,13.93
2023-01-23T04:47:48.101Z,14.77
2023-01-23T04:50:15.299Z,16.50
2023-01-23T04:52:42.110Z,14.90
2023-01-23T04:55:09.416Z,19.35
2023-01-23T04:57:36.271Z,16.67
2023-01-23T05:00:03.594Z,16.23
2023-01-23T05:02:30.468Z,15.77
2023-01-23T05:04:57.300Z,14.73
2023-01-23T05:07:24.249Z,11.63
2023-01-23T05:09:51.133Z,11.93
2023-01-23T05:12:17.927Z,15.88
2023-01-23T05:14:44.855Z,16.23
2023-01-23T05:17:11.721Z,14.32
2023-01-23T05:19:38.540Z,16.10
2023-01-23T05:22:05.439Z,13.83
2023-01-23T05:24:32.371Z,15.98
2023-01-23T05:27:02.461Z,15.45
2023-01-23T05:29:29.358Z,15.15
2023-01-23T05:31:56.485Z,12.65
2023-01-23T05:34:23.385Z,17.47
2023-01-23T05:36:50.263Z,16.73
2023-01-23T05:39:17.231Z,14.10
2023-01-23T05:41:44.148Z,14.82
2023-01-23T05:44:11.146Z,18.27
2023-01-23T05:46:37.964Z,13.53
2023-01-23T05:49:05.089Z,12.73
2023-01-23T05:51:34.006Z,13.52
2023-01-23T05:54:02.288Z,18.58
2023-01-23T05:56:30.087Z,14.93
2023-01-23T05:58:56.950Z,12.83
2023-01-23T06:01:23.899Z,12.60
2023-01-23T06:03:50.796Z,14.32
2023-01-23T06:06:17.639Z,16.42
2023-01-23T06:08:44.612Z,15.07
2023-01-23T06:11:11.488Z,16.87
2023-01-23T06:13:38.339Z,12.80
2023-01-23T06:16:05.775Z,13.65
2023-01-23T06:18:32.719Z,18.13
2023-01-23T06:21:01.348Z,14.57
2023-01-23T06:23:28.841Z,18.07
2023-01-23T06:25:59.676Z,14.02
2023-01-23T06:28:26.549Z,15.43
2023-01-23T06:30:53.447Z,16.67
2023-01-23T06:33:20.481Z,19.45
2023-01-23T06:35:47.367Z,16.57
2023-01-23T06:38:14.207Z,11.02
2023-01-23T06:40:41.249Z,13.25
2023-01-23T06:43:08.265Z,14.70
2023-01-23T06:45:35.196Z,15.68
2023-01-23T06:48:02.097Z,16.43
2023-01-23T06:50:28.945Z,13.75
2023-01-23T06:52:55.991Z,16.75
2023-01-23T06:55:22.939Z,13.60
2023-01-23T06:57:49.978Z,14.10
2023-01-23T07:00:17.344Z,15.53
2023-01-23T07:02:45.748Z,15.20
2023-01-23T07:05:12.839Z,13.43
2023-01-23T07:07:39.818Z,16.15
2023-01-23T07:10:07.619Z,17.02
2023-01-23T07:12:35.303Z,17.07
2023-01-23T07:15:02.632Z,13.80
2023-01-23T07:17:29.749Z,16.52
2023-01-23T07:19:56.826Z,15.93
2023-01-23T07:22:23.764Z,17.17
2023-01-23T07:24:50.643Z,20.00
2023-01-23T07:27:17.713Z,16.80
2023-01-23T07:29:44.696Z,17.80
2023-01-23T07:32:11.871Z,14.48
2023-01-23T07:34:39.134Z,18.27
2023-01-23T07:37:06.163Z,16.67
2023-01-23T07:39:33.180Z,18.70
2023-01-23T07:42:00.129Z,16.92
2023-01-23T07:44:27.266Z,14.55
2023-01-23T07:46:54.314Z,16.92
2023-01-23T07:49:21.397Z,13.00
2023-01-23T07:51:48.238Z,14.95
2023-01-23T07:54:15.105Z,16.48
2023-01-23T07:56:42.236Z,16.05
2023-01-23T07:59:09.197Z,13.60
2023-01-23T08:01:36.211Z,15.20
2023-01-23T08:04:03.171Z,13.75
2023-01-23T08:06:30.182Z,16.90
2023-01-23T08:08:57.247Z,17.88
2023-01-23T08:11:26.735Z,13.90
2023-01-23T08:13:53.866Z,17.73
2023-01-23T08:16:21.051Z,15.85
2023-01-23T08:18:48.023Z,17.27
2023-01-23T08:21:15.523Z,18.35
2023-01-23T08:23:42.797Z,15.85
2023-01-23T08:26:11.688Z,16.70
2023-01-23T08:28:38.635Z,18.77
2023-01-23T08:31:08.322Z,16.10
2023-01-23T08:33:37.178Z,17.55
2023-01-23T08:36:05.525Z,17.25
2023-01-23T08:38:33.062Z,17.20
2023-01-23T08:41:02.686Z,19.17
2023-01-23T08:43:30.298Z,16.08
2023-01-23T08:45:58.976Z,17.83
2023-01-23T08:48:27.214Z,17.52
2023-01-23T08:51:00.664Z,18.37
2023-01-23T08:53:28.219Z,19.55
2023-01-23T08:55:59.962Z,16.65
2023-01-23T08:58:27.473Z,15.60
2023-01-23T09:00:54.609Z,21.35
2023-01-23T09:03:21.630Z,18.23
2023-01-23T09:05:48.912Z,16.58
2023-01-23T09:08:15.830Z,21.15
2023-01-23T09:10:43.314Z,16.60
2023-01-23T09:13:10.313Z,17.85
2023-01-23T09:15:40.412Z,19.07
2023-01-23T09:18:07.552Z,17.02
2023-01-23T09:20:34.431Z,17.63
2023-01-23T09:23:01.735Z,17.35
2023-01-23T09:25:31.375Z,22.02
2023-01-23T09:27:58.393Z,18.27
2023-01-23T09:30:25.530Z,20.17
2023-01-23T09:32:53.414Z,16.77
2023-01-23T09:35:20.445Z,18.08
2023-01-23T09:38:02.438Z,18.85
2023-01-23T09:40:38.825Z,20.00
2023-01-23T09:43:14.628Z,16.98
2023-01-23T09:45:47.807Z,19.67
2023-01-23T09:48:28.408Z,19.73
2023-01-23T09:51:05.315Z,15.27
2023-01-23T09:53:37.660Z,18.87
2023-01-23T09:56:34.763Z,20.02
2023-01-23T09:59:10.822Z,16.60
2023-01-23T10:01:38.357Z,15.90
2023-01-23T10:04:05.822Z,15.88
2023-01-23T10:06:53.219Z,15.33
2023-01-23T10:09:38.316Z,17.13
2023-01-23T10:12:19.012Z,17.05
2023-01-23T10:15:14.815Z,17.45
2023-01-23T10:18:23.042Z,14.20
2023-01-23T10:21:08.118Z,17.10
2023-01-23T10:23:55.155Z,17.08
2023-01-23T10:26:31.706Z,16.95
2023-01-23T10:29:06.788Z,16.15
2023-01-23T10:31:42.189Z,20.35
2023-01-23T10:34:23.580Z,15.73
2023-01-23T10:37:18.884Z,15.85
2023-01-23T10:40:02.140Z,17.63
2023-01-23T10:42:29.288Z,14.57
2023-01-23T10:44:56.255Z,15.45
2023-01-23T10:47:33.316Z,15.33
2023-01-23T10:50:01.329Z,17.55
2023-01-23T10:52:38.669Z,15.15
2023-01-23T10:55:27.748Z,11.90
2023-01-23T10:57:57.887Z,12.63
2023-01-23T11:00:46.974Z,14.37
2023-01-23T11:03:22.962Z,13.20
2023-01-23T11:05:55.054Z,15.10
2023-01-23T11:08:24.356Z,13.48
2023-01-23T11:10:51.652Z,11.75
2023-01-23T11:13:30.693Z,14.50
2023-01-23T11:15:57.937Z,16.15
2023-01-23T11:18:34.152Z,14.73
2023-01-23T11:21:02.442Z,14.68
2023-01-23T11:23:31.664Z,14.00
2023-01-23T11:25:58.708Z,14.33
2023-01-23T11:28:46.766Z,13.63
2023-01-23T11:31:24.239Z,12.05
2023-01-23T11:33:56.413Z,14.93
2023-01-23T11:36:43.361Z,15.00
2023-01-23T11:39:34.158Z,14.33
2023-01-23T11:42:01.367Z,13.98
2023-01-23T11:44:32.369Z,12.88
2023-01-23T11:47:19.795Z,15.20
2023-01-23T11:50:17.555Z,14.70
2023-01-23T11:53:22.495Z,14.07
2023-01-23T11:56:13.381Z,16.15
2023-01-23T11:59:19.406Z,13.52
2023-01-23T12:02:03.111Z,13.93
2023-01-23T12:05:03.124Z,13.63
2023-01-23T12:07:44.019Z,15.40
2023-01-23T12:10:56.253Z,16.30
2023-01-23T12:13:37.819Z,16.20
2023-01-23T12:16:18.813Z,15.13
2023-01-23T12:19:13.438Z,12.43
2023-01-23T12:22:18.739Z,11.43
2023-01-23T12:24:57.606Z,19.80
2023-01-23T12:27:34.535Z,14.20
2023-01-23T12:30:43.206Z,13.75
2023-01-23T12:33:36.911Z,14.07
2023-01-23T12:36:59.493Z,13.83
2023-01-23T12:39:33.077Z,11.23
2023-01-23T12:42:05.062Z,14.73
2023-01-23T12:44:47.829Z,13.73
2023-01-23T12:47:22.287Z,12.65
2023-01-23T12:50:03.171Z,13.93
2023-01-23T12:52:33.089Z,13.55
2023-01-23T12:55:06.481Z,12.50
2023-01-23T12:57:52.839Z,13.40
2023-01-23T13:00:48.816Z,12.02
2023-01-23T13:03:37.252Z,12.63
2023-01-23T13:06:48.514Z,13.00
2023-01-23T13:09:27.519Z,13.80
2023-01-23T13:12:00.393Z,14.18
2023-01-23T13:14:34.733Z,11.77
2023-01-23T13:17:32.020Z,11.50
2023-01-23T13:20:42.128Z,13.63
2023-01-23T13:23:32.087Z,11.30
2023-01-23T13:26:20.497Z,9.93
2023-01-23T13:28:48.965Z,10.20
2023-01-23T13:31:34.548Z,9.77
2023-01-23T13:34:25.045Z,10.45
2023-01-23T13:36:53.535Z,9.40
2023-01-23T13:39:30.247Z,11.00
2023-01-23T13:42:15.093Z,9.90
2023-01-23T13:45:19.770Z,9.10
2023-01-23T14:25:18.449Z,9.48
2023-01-23T14:27:54.529Z,9.97
2023-01-23T14:30:28.368Z,11.20
2023-01-23T14:32:55.647Z,13.43
2023-01-23T14:35:32.811Z,10.75
2023-01-23T14:38:06.467Z,11.15
2023-01-23T14:40:48.916Z,10.03
2023-01-23T14:43:27.163Z,10.18
2023-01-23T14:46:03.175Z,13.43
2023-01-23T14:48:35.411Z,12.10
2023-01-23T14:51:20.131Z,14.02
2023-01-23T14:54:20.393Z,9.77
2023-01-23T14:56:49.927Z,11.50
2023-01-23T14:59:27.184Z,9.40
2023-01-23T15:02:25.110Z,9.80
2023-01-23T15:05:10.737Z,9.82
2023-01-23T15:08:04.523Z,13.17
2023-01-23T15:10:40.906Z,8.45
2023-01-23T15:13:36.088Z,9.48
2023-01-23T15:16:06.687Z,9.30
2023-01-23T15:18:36.027Z,10.52
2023-01-23T15:21:06.034Z,10.53
2023-01-23T15:23:38.087Z,9.82
2023-01-23T15:26:15.363Z,11.85
2023-01-23T15:28:49.562Z,10.55
2023-01-23T15:31:39.605Z,9.00
2023-01-23T15:34:34.220Z,10.17
2023-01-23T15:37:22.965Z,8.85
2023-01-23T15:39:53.793Z,10.13
2023-01-23T15:42:33.079Z,9.30
2023-01-23T15:45:04.056Z,10.40
2023-01-23T15:47:32.063Z,8.97
2023-01-23T15:50:01.935Z,13.00
2023-01-23T15:52:47.988Z,12.20
2023-01-23T15:55:15.416Z,11.60
2023-01-23T15:57:43.513Z,12.95
2023-01-23T16:00:21.778Z,14.00
2023-01-23T16:02:56.121Z,11.40
2023-01-23T16:05:33.384Z,13.13
2023-01-23T16:08:04.744Z,11.13
2023-01-23T16:10:36.575Z,12.65
2023-01-23T16:13:04.254Z,12.93
2023-01-23T16:15:33.813Z,13.95
2023-01-23T16:18:03.042Z,12.15
2023-01-23T16:20:44.334Z,12.20
2023-01-23T16:23:24.894Z,12.88
2023-01-23T16:25:52.664Z,14.73
2023-01-23T16:28:23.247Z,13.77
2023-01-23T16:30:52.144Z,11.63
2023-01-23T16:33:20.328Z,13.85
2023-01-23T16:35:49.091Z,15.30
2023-01-23T16:38:28.429Z,16.90
2023-01-23T16:40:57.454Z,17.13
2023-01-23T16:43:24.374Z,17.98
2023-01-23T16:45:54.343Z,15.48
2023-01-23T16:48:30.224Z,17.95
2023-01-23T16:51:01.531Z,13.40
2023-01-23T16:53:34.513Z,16.65
2023-01-23T16:56:02.944Z,17.40
2023-01-23T16:58:34.321Z,14.50
2023-01-23T17:01:04.100Z,15.05
2023-01-23T17:03:35.535Z,14.40
2023-01-23T17:06:02.555Z,16.73
2023-01-23T17:08:29.539Z,15.18
2023-01-23T17:11:00.597Z,18.02
2023-01-23T17:13:31.175Z,14.63
2023-01-23T17:15:59.312Z,18.50
2023-01-23T17:18:34.183Z,20.73
2023-01-23T17:21:01.795Z,23.70
2023-01-23T17:23:28.644Z,20.63
2023-01-23T17:26:00.649Z,22.85
2023-01-23T17:28:28.604Z,19.83
2023-01-23T17:30:56.578Z,15.15
2023-01-23T17:33:27.442Z,19.50
2023-01-23T17:35:54.597Z,24.50
2023-01-23T17:38:25.842Z,19.00
2023-01-23T17:40:53.489Z,17.03
2023-01-23T17:43:21.365Z,20.83
2023-01-23T17:45:51.567Z,18.88
2023-01-23T17:48:31.918Z,17.05
2023-01-23T17:50:59.739Z,17.83
2023-01-23T17:53:28.104Z,15.63
2023-01-23T17:55:55.001Z,17.65
2023-01-23T17:58:22.124Z,15.43
2023-01-23T18:00:51.236Z,15.95
2023-01-23T18:03:21.932Z,15.18
2023-01-23T18:05:49.097Z,19.03
2023-01-23T18:08:18.598Z,17.90
2023-01-23T18:10:47.634Z,17.02
2023-01-23T18:13:28.041Z,18.17
2023-01-23T18:16:20.414Z,20.33
2023-01-23T18:18:53.234Z,17.50
2023-01-23T18:21:23.863Z,17.25
2023-01-23T18:23:51.297Z,19.65
2023-01-23T18:26:39.521Z,17.90
2023-01-23T18:29:24.607Z,16.55
2023-01-23T18:32:36.174Z,17.60
2023-01-23T18:35:27.669Z,17.35
2023-01-23T18:38:17.634Z,16.90
2023-01-23T18:40:53.604Z,16.88
2023-01-23T18:43:43.941Z,18.90
2023-01-23T18:46:19.381Z,19.57
2023-01-23T18:48:48.199Z,20.00
2023-01-23T18:51:21.091Z,17.70
2023-01-23T18:54:42.311Z,18.63
2023-01-23T18:57:33.638Z,16.75
2023-01-23T19:00:15.581Z,18.00
2023-01-23T19:02:52.437Z,18.20
2023-01-23T19:05:26.285Z,18.05
2023-01-23T19:07:53.446Z,20.63
2023-01-23T19:10:23.609Z,16.20
2023-01-23T19:13:14.386Z,19.13
2023-01-23T19:16:00.031Z,17.55
2023-01-23T19:19:15.890Z,17.15
2023-01-23T19:21:46.065Z,19.60
2023-01-23T19:24:15.418Z,20.25
2023-01-23T19:26:42.626Z,16.63
2023-01-23T19:29:21.521Z,21.60
2023-01-23T19:32:06.879Z,19.20
2023-01-23T19:34:35.053Z,16.73
2023-01-23T19:37:02.571Z,17.05
2023-01-23T19:39:29.627Z,20.40
2023-01-23T19:41:59.021Z,19.75
2023-01-23T19:44:29.084Z,17.25
2023-01-23T19:46:56.159Z,15.80
2023-01-23T19:49:23.085Z,19.95
2023-01-23T19:51:49.912Z,18.70
2023-01-23T19:54:16.944Z,18.67
2023-01-23T19:56:43.864Z,16.60
2023-01-23T19:59:11.796Z,20.50
2023-01-23T20:01:48.640Z,19.20
2023-01-23T20:04:20.211Z,18.23
2023-01-23T20:06:49.249Z,18.55
2023-01-23T20:09:16.456Z,19.73
2023-01-23T20:11:44.891Z,19.65
2023-01-23T20:14:12.139Z,22.15
2023-01-23T20:16:41.133Z,17.57
2023-01-23T20:19:08.173Z,18.63
2023-01-23T20:21:35.055Z,18.63
2023-01-23T20:24:01.957Z,17.60
2023-01-23T20:26:28.770Z,18.83
2023-01-23T20:28:55.634Z,17.03
2023-01-23T20:31:23.054Z,17.02
2023-01-23T20:33:50.174Z,17.88
2023-01-23T20:36:17.139Z,15.82
2023-01-23T20:38:44.099Z,17.05
2023-01-23T20:41:16.505Z,16.87
2023-01-23T20:43:43.504Z,17.98
2023-01-23T20:46:12.052Z,17.75
2023-01-23T20:48:41.163Z,16.05
2023-01-23T20:51:09.782Z,17.45
2023-01-23T20:53:39.725Z,21.30
2023-01-23T20:56:19.144Z,20.55
2023-01-23T20:59:06.835Z,16.92
2023-01-23T21:01:55.048Z,19.30
2023-01-23T21:04:24.271Z,18.23
2023-01-23T21:06:51.433Z,19.53
2023-01-23T21:09:18.371Z,17.33
2023-01-23T21:11:45.435Z,16.75
2023-01-23T21:14:13.768Z,19.00
2023-01-23T21:16:40.672Z,19.15
2023-01-23T21:19:07.516Z,17.37
2023-01-23T21:21:34.664Z,17.33
2023-01-23T21:24:01.612Z,18.20
2023-01-23T21:26:29.490Z,17.75
2023-01-23T21:28:58.225Z,15.20
2023-01-23T21:31:26.851Z,14.60
2023-01-23T21:33:54.473Z,13.93
2023-01-23T21:36:23.569Z,17.85
2023-01-23T21:38:54.073Z,16.70
2023-01-23T21:41:21.588Z,15.68
2023-01-23T21:43:48.656Z,16.67
2023-01-23T21:46:15.767Z,15.77
2023-01-23T21:48:43.258Z,15.60
2023-01-23T21:51:13.136Z,15.82
2023-01-23T21:53:42.211Z,17.00
2023-01-23T21:56:10.569Z,15.30
2023-01-23T21:58:37.677Z,18.05
2023-01-23T22:01:30.056Z,17.20
2023-01-23T22:03:57.441Z,17.33
2023-01-23T22:06:24.527Z,14.77
2023-01-23T22:08:51.505Z,17.17
2023-01-23T22:11:18.415Z,14.55
2023-01-23T22:13:45.530Z,15.48
2023-01-23T22:16:12.658Z,15.25
2023-01-23T22:18:39.646Z,15.07
2023-01-23T22:21:07.311Z,14.00
2023-01-23T22:23:34.547Z,15.82
2023-01-23T22:26:04.910Z,16.70
2023-01-23T22:28:33.242Z,16.60
2023-01-23T22:31:12.525Z,18.73
2023-01-23T22:33:41.254Z,15.10
2023-01-23T22:36:11.070Z,12.80
2023-01-23T22:38:38.009Z,16.75
2023-01-23T22:41:06.203Z,14.40
2023-01-23T22:43:34.342Z,15.43
2023-01-23T22:46:10.308Z,15.17
2023-01-23T22:48:38.996Z,14.63
2023-01-23T22:51:13.189Z,15.48
2023-01-23T22:53:40.769Z,14.45
2023-01-23T22:56:08.231Z,15.00
2023-01-23T22:58:35.554Z,14.27
2023-01-23T23:01:03.288Z,15.95
2023-01-23T23:03:35.053Z,16.38
2023-01-23T23:06:07.430Z,15.60
2023-01-23T23:08:35.760Z,13.95
2023-01-23T23:11:07.068Z,14.83
2023-01-23T23:13:35.868Z,13.02
2023-01-23T23:16:08.322Z,14.55
2023-01-23T23:18:38.171Z,14.77
2023-01-23T23:21:08.404Z,16.65
2023-01-23T23:23:36.179Z,14.97
2023-01-23T23:26:04.911Z,13.55
2023-01-23T23:28:32.968Z,14.50
2023-01-23T23:31:00.315Z,16.00
2023-01-23T23:33:27.595Z,13.40
2023-01-23T23:35:54.560Z,14.43
2023-01-23T23:38:21.816Z,13.40
2023-01-23T23:40:56.349Z,14.40
2023-01-23T23:43:24.000Z,11.85
2023-01-23T23:45:59.841Z,13.13
2023-01-23T23:48:28.075Z,14.77
2023-01-23T23:50:55.573Z,12.82
2023-01-23T23:53:22.959Z,12.68
2023-01-23T23:55:49.796Z,14.75
2023-01-23T23:58:16.789Z,13.65
